sensor_id;sensor_type;location;lat;lon;timestamp;P1;durP1;ratioP1;P2;durP2;ratioP2
3155;SDS011;1588;50.892;7.082;2023-02-19T00:01:54;4.60;;;2.93;;
3155;SDS011;1588;50.892;7.082;2023-02-19T00:06:58;6.93;;;3.60;;
3155;SDS011;1588;50.892;7.082;2023-02-19T00:12:01;6.37;;;3.40;;
3155;SDS011;1588;50.892;7.082;2023-02-19T00:17:03;5.90;;;3.67;;
3155;SDS011;1588;50.892;7.082;2023-02-19T00:22:07;10.87;;;5.23;;
3155;SDS011;1588;50.892;7.082;2023-02-19T00:27:10;8.40;;;4.30;;
3155;SDS011;1588;50.892;7.082;2023-02-19T00:32:12;7.57;;;4.77;;
3155;SDS011;1588;50.892;7.082;2023-02-19T00:37:21;8.17;;;4.83;;
3155;SDS011;1588;50.892;7.082;2023-02-19T00:42:24;8.53;;;4.27;;
3155;SDS011;1588;50.892;7.082;2023-02-19T00:47:26;8.30;;;4.60;;
3155;SDS011;1588;50.892;7.082;2023-02-19T00:52:30;8.97;;;5.00;;
3155;SDS011;1588;50.892;7.082;2023-02-19T00:57:33;9.23;;;4.70;;
3155;SDS011;1588;50.892;7.082;2023-02-19T01:02:35;11.20;;;5.53;;
3155;SDS011;1588;50.892;7.082;2023-02-19T01:07:39;15.90;;;5.83;;
3155;SDS011;1588;50.892;7.082;2023-02-19T01:12:42;10.50;;;5.87;;
3155;SDS011;1588;50.892;7.082;2023-02-19T01:17:45;8.03;;;4.90;;
3155;SDS011;1588;50.892;7.082;2023-02-19T01:22:50;11.17;;;4.67;;
3155;SDS011;1588;50.892;7.082;2023-02-19T01:27:52;11.57;;;5.80;;
3155;SDS011;1588;50.892;7.082;2023-02-19T01:32:55;12.10;;;4.17;;
3155;SDS011;1588;50.892;7.082;2023-02-19T01:37:59;12.80;;;5.40;;
3155;SDS011;1588;50.892;7.082;2023-02-19T01:43:01;11.03;;;4.60;;
3155;SDS011;1588;50.892;7.082;2023-02-19T01:48:05;9.30;;;4.37;;
3155;SDS011;1588;50.892;7.082;2023-02-19T01:53:18;14.03;;;4.00;;
3155;SDS011;1588;50.892;7.082;2023-02-19T01:58:34;8.43;;;3.93;;
3155;SDS011;1588;50.892;7.082;2023-02-19T02:03:42;7.60;;;3.93;;
3155;SDS011;1588;50.892;7.082;2023-02-19T02:08:50;7.97;;;4.20;;
3155;SDS011;1588;50.892;7.082;2023-02-19T02:14:12;4.97;;;3.40;;
3155;SDS011;1588;50.892;7.082;2023-02-19T02:19:28;5.00;;;3.10;;
3155;SDS011;1588;50.892;7.082;2023-02-19T02:30:26;5.60;;;3.20;;
3155;SDS011;1588;50.892;7.082;2023-02-19T02:35:36;8.37;;;3.83;;
3155;SDS011;1588;50.892;7.082;2023-02-19T02:40:43;8.00;;;3.60;;
3155;SDS011;1588;50.892;7.082;2023-02-19T02:45:48;9.27;;;4.17;;
3155;SDS011;1588;50.892;7.082;2023-02-19T02:50:51;12.70;;;3.70;;
3155;SDS011;1588;50.892;7.082;2023-02-19T02:55:57;6.30;;;3.67;;
3155;SDS011;1588;50.892;7.082;2023-02-19T03:01:03;6.30;;;3.37;;
3155;SDS011;1588;50.892;7.082;2023-02-19T03:06:32;8.00;;;4.40;;
3155;SDS011;1588;50.892;7.082;2023-02-19T03:11:38;12.27;;;4.30;;
3155;SDS011;1588;50.892;7.082;2023-02-19T03:17:04;5.20;;;3.20;;
3155;SDS011;1588;50.892;7.082;2023-02-19T03:22:28;7.40;;;3.50;;
3155;SDS011;1588;50.892;7.082;2023-02-19T03:27:34;10.40;;;4.67;;
3155;SDS011;1588;50.892;7.082;2023-02-19T03:32:41;10.27;;;5.20;;
3155;SDS011;1588;50.892;7.082;2023-02-19T03:37:48;19.20;;;6.80;;
3155;SDS011;1588;50.892;7.082;2023-02-19T03:42:57;11.97;;;5.80;;
3155;SDS011;1588;50.892;7.082;2023-02-19T03:48:09;14.57;;;5.70;;
3155;SDS011;1588;50.892;7.082;2023-02-19T03:53:33;18.60;;;6.97;;
3155;SDS011;1588;50.892;7.082;2023-02-19T03:58:43;29.00;;;6.60;;
3155;SDS011;1588;50.892;7.082;2023-02-19T04:03:54;17.70;;;7.03;;
3155;SDS011;1588;50.892;7.082;2023-02-19T04:09:01;14.83;;;6.87;;
3155;SDS011;1588;50.892;7.082;2023-02-19T04:14:09;16.47;;;6.90;;
3155;SDS011;1588;50.892;7.082;2023-02-19T04:19:19;18.60;;;5.93;;
3155;SDS011;1588;50.892;7.082;2023-02-19T04:24:28;17.37;;;7.13;;
3155;SDS011;1588;50.892;7.082;2023-02-19T04:29:33;16.10;;;6.33;;
3155;SDS011;1588;50.892;7.082;2023-02-19T04:34:37;19.10;;;7.07;;
3155;SDS011;1588;50.892;7.082;2023-02-19T04:39:39;18.20;;;6.77;;
3155;SDS011;1588;50.892;7.082;2023-02-19T04:44:42;22.37;;;6.70;;
3155;SDS011;1588;50.892;7.082;2023-02-19T04:49:55;25.03;;;6.60;;
3155;SDS011;1588;50.892;7.082;2023-02-19T04:54:58;14.73;;;7.10;;
3155;SDS011;1588;50.892;7.082;2023-02-19T05:00:01;19.83;;;7.53;;
3155;SDS011;1588;50.892;7.082;2023-02-19T05:05:06;18.77;;;8.77;;
3155;SDS011;1588;50.892;7.082;2023-02-19T05:10:09;22.73;;;8.30;;
3155;SDS011;1588;50.892;7.082;2023-02-19T05:15:11;17.50;;;7.30;;
3155;SDS011;1588;50.892;7.082;2023-02-19T05:20:15;19.07;;;8.20;;
3155;SDS011;1588;50.892;7.082;2023-02-19T05:25:18;23.23;;;8.50;;
3155;SDS011;1588;50.892;7.082;2023-02-19T05:30:21;24.23;;;7.63;;
3155;SDS011;1588;50.892;7.082;2023-02-19T05:35:25;21.63;;;9.47;;
3155;SDS011;1588;50.892;7.082;2023-02-19T05:40:37;19.90;;;9.13;;
3155;SDS011;1588;50.892;7.082;2023-02-19T05:45:41;22.00;;;8.90;;
3155;SDS011;1588;50.892;7.082;2023-02-19T05:50:45;25.57;;;9.37;;
3155;SDS011;1588;50.892;7.082;2023-02-19T05:55:48;24.30;;;9.70;;
3155;SDS011;1588;50.892;7.082;2023-02-19T06:00:52;22.33;;;8.43;;
3155;SDS011;1588;50.892;7.082;2023-02-19T06:05:56;23.93;;;9.00;;
3155;SDS011;1588;50.892;7.082;2023-02-19T06:10:59;25.43;;;10.30;;
3155;SDS011;1588;50.892;7.082;2023-02-19T06:16:02;19.10;;;7.90;;
3155;SDS011;1588;50.892;7.082;2023-02-19T06:21:07;19.40;;;9.17;;
3155;SDS011;1588;50.892;7.082;2023-02-19T06:26:14;20.80;;;8.67;;
3155;SDS011;1588;50.892;7.082;2023-02-19T06:31:19;24.60;;;10.70;;
3155;SDS011;1588;50.892;7.082;2023-02-19T06:36:24;32.83;;;10.17;;
3155;SDS011;1588;50.892;7.082;2023-02-19T06:41:27;26.03;;;10.90;;
3155;SDS011;1588;50.892;7.082;2023-02-19T06:46:29;42.73;;;11.37;;
3155;SDS011;1588;50.892;7.082;2023-02-19T06:51:33;28.77;;;12.00;;
3155;SDS011;1588;50.892;7.082;2023-02-19T06:56:36;37.10;;;12.23;;
3155;SDS011;1588;50.892;7.082;2023-02-19T07:01:42;26.10;;;10.07;;
3155;SDS011;1588;50.892;7.082;2023-02-19T07:06:58;35.53;;;11.93;;
3155;SDS011;1588;50.892;7.082;2023-02-19T07:12:00;27.10;;;10.10;;
3155;SDS011;1588;50.892;7.082;2023-02-19T07:17:02;25.17;;;8.97;;
3155;SDS011;1588;50.892;7.082;2023-02-19T07:22:06;22.20;;;9.30;;
3155;SDS011;1588;50.892;7.082;2023-02-19T07:27:09;26.97;;;9.80;;
3155;SDS011;1588;50.892;7.082;2023-02-19T07:37:27;27.30;;;8.23;;
3155;SDS011;1588;50.892;7.082;2023-02-19T07:42:30;18.43;;;7.60;;
3155;SDS011;1588;50.892;7.082;2023-02-19T07:47:32;30.63;;;8.53;;
3155;SDS011;1588;50.892;7.082;2023-02-19T07:52:36;29.50;;;10.30;;
3155;SDS011;1588;50.892;7.082;2023-02-19T07:57:38;25.83;;;8.60;;
3155;SDS011;1588;50.892;7.082;2023-02-19T08:02:41;21.80;;;8.90;;
3155;SDS011;1588;50.892;7.082;2023-02-19T08:08:05;26.30;;;9.27;;
3155;SDS011;1588;50.892;7.082;2023-02-19T08:13:10;28.53;;;9.87;;
3155;SDS011;1588;50.892;7.082;2023-02-19T08:18:26;23.03;;;9.93;;
3155;SDS011;1588;50.892;7.082;2023-02-19T08:23:32;20.17;;;8.73;;
3155;SDS011;1588;50.892;7.082;2023-02-19T08:28:35;33.07;;;11.07;;
3155;SDS011;1588;50.892;7.082;2023-02-19T08:33:40;33.20;;;10.50;;
3155;SDS011;1588;50.892;7.082;2023-02-19T08:38:44;21.20;;;9.77;;
3155;SDS011;1588;50.892;7.082;2023-02-19T08:43:46;27.70;;;9.43;;
3155;SDS011;1588;50.892;7.082;2023-02-19T08:48:55;24.63;;;8.37;;
3155;SDS011;1588;50.892;7.082;2023-02-19T08:54:35;36.87;;;9.10;;
3155;SDS011;1588;50.892;7.082;2023-02-19T08:59:37;39.90;;;8.83;;
3155;SDS011;1588;50.892;7.082;2023-02-19T09:04:40;15.73;;;7.83;;
3155;SDS011;1588;50.892;7.082;2023-02-19T09:09:44;17.33;;;8.03;;
3155;SDS011;1588;50.892;7.082;2023-02-19T09:14:47;21.07;;;8.17;;
3155;SDS011;1588;50.892;7.082;2023-02-19T09:19:49;21.60;;;8.03;;
3155;SDS011;1588;50.892;7.082;2023-02-19T09:24:53;34.80;;;9.50;;
3155;SDS011;1588;50.892;7.082;2023-02-19T09:29:58;26.30;;;8.17;;
3155;SDS011;1588;50.892;7.082;2023-02-19T09:35:01;24.30;;;7.07;;
3155;SDS011;1588;50.892;7.082;2023-02-19T09:40:05;12.30;;;5.27;;
3155;SDS011;1588;50.892;7.082;2023-02-19T09:45:14;19.57;;;5.23;;
3155;SDS011;1588;50.892;7.082;2023-02-19T09:50:21;20.27;;;5.70;;
3155;SDS011;1588;50.892;7.082;2023-02-19T09:55:31;25.37;;;5.07;;
3155;SDS011;1588;50.892;7.082;2023-02-19T10:00:35;8.90;;;4.60;;
3155;SDS011;1588;50.892;7.082;2023-02-19T10:05:39;15.17;;;5.10;;
3155;SDS011;1588;50.892;7.082;2023-02-19T10:10:46;13.50;;;4.33;;
3155;SDS011;1588;50.892;7.082;2023-02-19T10:15:49;12.07;;;4.40;;
3155;SDS011;1588;50.892;7.082;2023-02-19T10:20:53;14.77;;;4.93;;
3155;SDS011;1588;50.892;7.082;2023-02-19T10:25:58;8.97;;;4.80;;
3155;SDS011;1588;50.892;7.082;2023-02-19T10:31:02;13.30;;;5.70;;
3155;SDS011;1588;50.892;7.082;2023-02-19T10:36:15;16.70;;;5.60;;
3155;SDS011;1588;50.892;7.082;2023-02-19T10:41:27;19.83;;;5.93;;
3155;SDS011;1588;50.892;7.082;2023-02-19T10:46:31;13.97;;;5.27;;
3155;SDS011;1588;50.892;7.082;2023-02-19T10:51:36;11.90;;;4.93;;
3155;SDS011;1588;50.892;7.082;2023-02-19T10:56:43;18.57;;;5.80;;
3155;SDS011;1588;50.892;7.082;2023-02-19T11:01:56;16.33;;;5.17;;
3155;SDS011;1588;50.892;7.082;2023-02-19T11:07:42;16.40;;;5.80;;
3155;SDS011;1588;50.892;7.082;2023-02-19T11:13:12;16.47;;;5.83;;
3155;SDS011;1588;50.892;7.082;2023-02-19T11:18:18;18.53;;;7.77;;
3155;SDS011;1588;50.892;7.082;2023-02-19T11:23:24;13.70;;;5.83;;
3155;SDS011;1588;50.892;7.082;2023-02-19T11:28:34;17.90;;;7.27;;
3155;SDS011;1588;50.892;7.082;2023-02-19T11:33:43;16.10;;;5.57;;
3155;SDS011;1588;50.892;7.082;2023-02-19T11:38:51;13.70;;;6.50;;
3155;SDS011;1588;50.892;7.082;2023-02-19T11:44:06;13.03;;;6.70;;
3155;SDS011;1588;50.892;7.082;2023-02-19T11:49:24;13.33;;;7.30;;
3155;SDS011;1588;50.892;7.082;2023-02-19T11:54:46;13.50;;;6.50;;
3155;SDS011;1588;50.892;7.082;2023-02-19T11:59:57;13.40;;;4.83;;
3155;SDS011;1588;50.892;7.082;2023-02-19T12:05:17;12.77;;;4.43;;
3155;SDS011;1588;50.892;7.082;2023-02-19T12:10:27;14.60;;;5.17;;
3155;SDS011;1588;50.892;7.082;2023-02-19T12:15:44;15.03;;;5.47;;
3155;SDS011;1588;50.892;7.082;2023-02-19T12:21:05;11.07;;;5.20;;
3155;SDS011;1588;50.892;7.082;2023-02-19T12:26:21;9.20;;;4.60;;
3155;SDS011;1588;50.892;7.082;2023-02-19T12:31:46;7.50;;;4.17;;
3155;SDS011;1588;50.892;7.082;2023-02-19T12:37:16;10.53;;;4.13;;
3155;SDS011;1588;50.892;7.082;2023-02-19T12:42:32;14.93;;;4.70;;
3155;SDS011;1588;50.892;7.082;2023-02-19T12:47:52;7.30;;;4.00;;
3155;SDS011;1588;50.892;7.082;2023-02-19T12:53:01;8.63;;;3.50;;
3155;SDS011;1588;50.892;7.082;2023-02-19T12:58:10;12.97;;;4.40;;
3155;SDS011;1588;50.892;7.082;2023-02-19T13:03:21;7.40;;;2.90;;
3155;SDS011;1588;50.892;7.082;2023-02-19T13:08:30;8.97;;;3.40;;
3155;SDS011;1588;50.892;7.082;2023-02-19T13:13:38;6.73;;;3.27;;
3155;SDS011;1588;50.892;7.082;2023-02-19T13:18:49;13.40;;;4.20;;
3155;SDS011;1588;50.892;7.082;2023-02-19T13:24:01;10.97;;;4.00;;
3155;SDS011;1588;50.892;7.082;2023-02-19T13:29:13;6.50;;;2.80;;
3155;SDS011;1588;50.892;7.082;2023-02-19T13:34:37;7.17;;;4.10;;
3155;SDS011;1588;50.892;7.082;2023-02-19T13:39:50;14.53;;;4.37;;
3155;SDS011;1588;50.892;7.082;2023-02-19T13:44:54;7.47;;;3.87;;
3155;SDS011;1588;50.892;7.082;2023-02-19T13:50:04;6.33;;;3.20;;
3155;SDS011;1588;50.892;7.082;2023-02-19T14:00:57;8.90;;;2.60;;
3155;SDS011;1588;50.892;7.082;2023-02-19T14:06:06;5.07;;;2.37;;
3155;SDS011;1588;50.892;7.082;2023-02-19T14:11:13;6.30;;;3.10;;
3155;SDS011;1588;50.892;7.082;2023-02-19T14:16:27;7.37;;;3.50;;
3155;SDS011;1588;50.892;7.082;2023-02-19T14:21:53;6.93;;;3.93;;
3155;SDS011;1588;50.892;7.082;2023-02-19T14:26:55;8.30;;;4.80;;
3155;SDS011;1588;50.892;7.082;2023-02-19T14:31:58;11.20;;;5.20;;
3155;SDS011;1588;50.892;7.082;2023-02-19T14:37:09;11.70;;;5.17;;
3155;SDS011;1588;50.892;7.082;2023-02-19T14:42:19;14.23;;;5.60;;
3155;SDS011;1588;50.892;7.082;2023-02-19T14:47:25;10.50;;;5.10;;
3155;SDS011;1588;50.892;7.082;2023-02-19T14:52:36;18.50;;;6.50;;
3155;SDS011;1588;50.892;7.082;2023-02-19T14:57:44;11.87;;;5.60;;
3155;SDS011;1588;50.892;7.082;2023-02-19T15:02:51;11.60;;;6.80;;
3155;SDS011;1588;50.892;7.082;2023-02-19T15:07:59;10.40;;;5.37;;
3155;SDS011;1588;50.892;7.082;2023-02-19T15:13:04;14.40;;;6.13;;
3155;SDS011;1588;50.892;7.082;2023-02-19T15:18:16;12.20;;;5.30;;
3155;SDS011;1588;50.892;7.082;2023-02-19T15:23:34;13.37;;;6.60;;
3155;SDS011;1588;50.892;7.082;2023-02-19T15:28:37;13.80;;;6.30;;
3155;SDS011;1588;50.892;7.082;2023-02-19T15:33:51;17.50;;;6.47;;
3155;SDS011;1588;50.892;7.082;2023-02-19T15:38:56;14.77;;;6.90;;
3155;SDS011;1588;50.892;7.082;2023-02-19T15:44:10;20.57;;;8.40;;
3155;SDS011;1588;50.892;7.082;2023-02-19T15:49:24;17.03;;;7.97;;
3155;SDS011;1588;50.892;7.082;2023-02-19T15:54:32;18.43;;;7.40;;
3155;SDS011;1588;50.892;7.082;2023-02-19T15:59:38;22.10;;;8.50;;
3155;SDS011;1588;50.892;7.082;2023-02-19T16:04:45;28.97;;;9.40;;
3155;SDS011;1588;50.892;7.082;2023-02-19T16:10:02;21.17;;;7.80;;
3155;SDS011;1588;50.892;7.082;2023-02-19T16:15:11;16.10;;;6.27;;
3155;SDS011;1588;50.892;7.082;2023-02-19T16:20:16;17.57;;;7.73;;
3155;SDS011;1588;50.892;7.082;2023-02-19T16:25:29;15.97;;;7.00;;
3155;SDS011;1588;50.892;7.082;2023-02-19T16:30:41;19.80;;;8.87;;
3155;SDS011;1588;50.892;7.082;2023-02-19T16:35:44;17.20;;;7.03;;
3155;SDS011;1588;50.892;7.082;2023-02-19T16:46:13;26.30;;;13.37;;
3155;SDS011;1588;50.892;7.082;2023-02-19T16:51:22;22.23;;;10.60;;
3155;SDS011;1588;50.892;7.082;2023-02-19T16:56:38;17.23;;;7.13;;
3155;SDS011;1588;50.892;7.082;2023-02-19T17:01:51;13.20;;;6.47;;
3155;SDS011;1588;50.892;7.082;2023-02-19T17:06:54;17.20;;;8.60;;
3155;SDS011;1588;50.892;7.082;2023-02-19T17:12:01;19.33;;;7.73;;
3155;SDS011;1588;50.892;7.082;2023-02-19T17:17:04;15.17;;;7.53;;
3155;SDS011;1588;50.892;7.082;2023-02-19T17:22:10;12.53;;;6.73;;
3155;SDS011;1588;50.892;7.082;2023-02-19T17:27:18;16.20;;;6.50;;
3155;SDS011;1588;50.892;7.082;2023-02-19T17:32:20;14.60;;;7.03;;
3155;SDS011;1588;50.892;7.082;2023-02-19T17:37:23;14.30;;;7.10;;
3155;SDS011;1588;50.892;7.082;2023-02-19T17:42:27;19.00;;;6.77;;
3155;SDS011;1588;50.892;7.082;2023-02-19T17:47:33;17.67;;;7.90;;
3155;SDS011;1588;50.892;7.082;2023-02-19T17:52:45;16.80;;;7.07;;
3155;SDS011;1588;50.892;7.082;2023-02-19T17:57:51;20.37;;;7.80;;
3155;SDS011;1588;50.892;7.082;2023-02-19T18:02:54;17.50;;;7.57;;
3155;SDS011;1588;50.892;7.082;2023-02-19T18:07:57;13.53;;;5.50;;
3155;SDS011;1588;50.892;7.082;2023-02-19T18:13:02;15.17;;;6.17;;
3155;SDS011;1588;50.892;7.082;2023-02-19T18:18:04;15.50;;;5.00;;
3155;SDS011;1588;50.892;7.082;2023-02-19T18:23:09;7.53;;;3.10;;
3155;SDS011;1588;50.892;7.082;2023-02-19T18:28:13;11.00;;;3.77;;
3155;SDS011;1588;50.892;7.082;2023-02-19T18:33:19;4.57;;;2.57;;
3155;SDS011;1588;50.892;7.082;2023-02-19T18:38:24;6.93;;;2.43;;
3155;SDS011;1588;50.892;7.082;2023-02-19T18:43:50;4.00;;;2.30;;
3155;SDS011;1588;50.892;7.082;2023-02-19T18:48:52;7.10;;;2.30;;
3155;SDS011;1588;50.892;7.082;2023-02-19T18:53:55;3.63;;;2.53;;
3155;SDS011;1588;50.892;7.082;2023-02-19T18:58:59;6.33;;;2.40;;
3155;SDS011;1588;50.892;7.082;2023-02-19T19:04:04;4.30;;;1.73;;
3155;SDS011;1588;50.892;7.082;2023-02-19T19:09:10;2.23;;;1.57;;
3155;SDS011;1588;50.892;7.082;2023-02-19T19:14:17;3.20;;;1.80;;
3155;SDS011;1588;50.892;7.082;2023-02-19T19:19:21;5.00;;;1.73;;
3155;SDS011;1588;50.892;7.082;2023-02-19T19:24:26;5.53;;;1.73;;
3155;SDS011;1588;50.892;7.082;2023-02-19T19:29:30;5.30;;;2.23;;
3155;SDS011;1588;50.892;7.082;2023-02-19T19:34:37;5.03;;;2.00;;
3155;SDS011;1588;50.892;7.082;2023-02-19T19:39:41;5.23;;;2.23;;
3155;SDS011;1588;50.892;7.082;2023-02-19T19:44:45;5.37;;;2.10;;
3155;SDS011;1588;50.892;7.082;2023-02-19T19:49:48;4.47;;;2.80;;
3155;SDS011;1588;50.892;7.082;2023-02-19T19:54:50;3.80;;;2.20;;
3155;SDS011;1588;50.892;7.082;2023-02-19T19:59:55;5.73;;;2.17;;
3155;SDS011;1588;50.892;7.082;2023-02-19T20:04:57;4.20;;;2.57;;
3155;SDS011;1588;50.892;7.082;2023-02-19T20:10:06;7.13;;;3.17;;
3155;SDS011;1588;50.892;7.082;2023-02-19T20:15:12;11.50;;;3.03;;
3155;SDS011;1588;50.892;7.082;2023-02-19T20:20:21;6.40;;;3.30;;
3155;SDS011;1588;50.892;7.082;2023-02-19T20:25:25;5.27;;;2.30;;
3155;SDS011;1588;50.892;7.082;2023-02-19T20:30:29;4.43;;;2.77;;
3155;SDS011;1588;50.892;7.082;2023-02-19T20:35:32;5.87;;;2.50;;
3155;SDS011;1588;50.892;7.082;2023-02-19T20:40:36;4.47;;;2.50;;
3155;SDS011;1588;50.892;7.082;2023-02-19T20:45:40;4.70;;;2.43;;
3155;SDS011;1588;50.892;7.082;2023-02-19T20:50:45;9.40;;;2.87;;
3155;SDS011;1588;50.892;7.082;2023-02-19T20:55:49;5.33;;;2.80;;
3155;SDS011;1588;50.892;7.082;2023-02-19T21:01:07;7.53;;;2.87;;
3155;SDS011;1588;50.892;7.082;2023-02-19T21:06:19;6.57;;;2.80;;
3155;SDS011;1588;50.892;7.082;2023-02-19T21:11:22;3.70;;;2.00;;
3155;SDS011;1588;50.892;7.082;2023-02-19T21:16:40;3.90;;;1.67;;
3155;SDS011;1588;50.892;7.082;2023-02-19T21:21:46;2.23;;;1.30;;
3155;SDS011;1588;50.892;7.082;2023-02-19T21:26:51;1.97;;;1.10;;
3155;SDS011;1588;50.892;7.082;2023-02-19T21:31:56;2.90;;;1.53;;
3155;SDS011;1588;50.892;7.082;2023-02-19T21:36:59;5.33;;;1.77;;
3155;SDS011;1588;50.892;7.082;2023-02-19T21:42:04;2.60;;;1.50;;
3155;SDS011;1588;50.892;7.082;2023-02-19T21:47:20;3.87;;;1.43;;
3155;SDS011;1588;50.892;7.082;2023-02-19T21:52:25;4.13;;;1.53;;
3155;SDS011;1588;50.892;7.082;2023-02-19T21:57:31;4.83;;;1.80;;
3155;SDS011;1588;50.892;7.082;2023-02-19T22:02:36;7.50;;;2.17;;
3155;SDS011;1588;50.892;7.082;2023-02-19T22:07:46;7.77;;;2.10;;
3155;SDS011;1588;50.892;7.082;2023-02-19T22:12:49;4.53;;;2.00;;
3155;SDS011;1588;50.892;7.082;2023-02-19T22:17:54;3.70;;;2.27;;
3155;SDS011;1588;50.892;7.082;2023-02-19T22:22:59;4.80;;;2.20;;
3155;SDS011;1588;50.892;7.082;2023-02-19T22:28:03;6.23;;;2.23;;
3155;SDS011;1588;50.892;7.082;2023-02-19T22:33:11;3.57;;;2.33;;
3155;SDS011;1588;50.892;7.082;2023-02-19T22:38:14;3.67;;;2.40;;
3155;SDS011;1588;50.892;7.082;2023-02-19T22:43:18;7.50;;;2.50;;
3155;SDS011;1588;50.892;7.082;2023-02-19T22:48:29;5.47;;;2.90;;
3155;SDS011;1588;50.892;7.082;2023-02-19T22:53:35;4.73;;;2.73;;
3155;SDS011;1588;50.892;7.082;2023-02-19T22:58:39;3.60;;;1.97;;
3155;SDS011;1588;50.892;7.082;2023-02-19T23:03:48;5.00;;;2.60;;
3155;SDS011;1588;50.892;7.082;2023-02-19T23:08:52;7.40;;;3.50;;
3155;SDS011;1588;50.892;7.082;2023-02-19T23:13:56;9.20;;;2.60;;
3155;SDS011;1588;50.892;7.082;2023-02-19T23:19:01;4.03;;;2.10;;
3155;SDS011;1588;50.892;7.082;2023-02-19T23:24:04;5.60;;;2.53;;
3155;SDS011;1588;50.892;7.082;2023-02-19T23:29:16;4.20;;;2.20;;
3155;SDS011;1588;50.892;7.082;2023-02-19T23:34:25;5.77;;;2.00;;
3155;SDS011;1588;50.892;7.082;2023-02-19T23:39:28;7.13;;;2.20;;
3155;SDS011;1588;50.892;7.082;2023-02-19T23:44:33;4.23;;;2.00;;
3155;SDS011;1588;50.892;7.082;2023-02-19T23:49:48;5.87;;;2.47;;
3155;SDS011;1588;50.892;7.082;2023-02-19T23:54:51;5.33;;;2.57;;
3155;SDS011;1588;50.892;7.082;2023-02-19T23:59:58;15.43;;;2.03;;
